createdAt,value
2023-01-30T00:00:25.318Z,98339.13
2023-01-30T00:03:28.578Z,98320.72
2023-01-30T00:06:30.284Z,98319.78
2023-01-30T00:09:31.969Z,98287.28
2023-01-30T00:12:33.562Z,98253.97
2023-01-30T00:15:35.507Z,98236.44
2023-01-30T00:18:39.548Z,98246.91
2023-01-30T00:21:41.310Z,98253.84
2023-01-30T00:24:43.079Z,98273.97
2023-01-30T00:27:44.727Z,98281.84
2023-01-30T00:30:48.422Z,98292.34
2023-01-30T00:33:51.327Z,98293.22
2023-01-30T00:37:07.432Z,98281.81
2023-01-30T00:40:10.257Z,98278.28
2023-01-30T00:43:31.786Z,98280.91
2023-01-30T00:46:53.158Z,98253.72
2023-01-30T00:49:56.255Z,98251.94
2023-01-30T00:52:58.103Z,98231.78
2023-01-30T00:55:59.753Z,98242.28
2023-01-30T00:59:01.570Z,98249.22
2023-01-30T01:02:03.280Z,98236.88
2023-01-30T01:05:06.850Z,98242.97
2023-01-30T01:08:08.376Z,98233.31
2023-01-30T01:11:09.871Z,98218.47
2023-01-30T01:14:11.508Z,98221.03
2023-01-30T01:17:13.330Z,98214.91
2023-01-30T01:20:16.998Z,98216.69
2023-01-30T01:23:18.868Z,98213.22
2023-01-30T01:26:20.955Z,98211.47
2023-01-30T01:29:22.704Z,98197.41
2023-01-30T01:32:25.482Z,98183.38
2023-01-30T01:35:28.561Z,98167.53
2023-01-30T01:38:30.403Z,98152.66
2023-01-30T01:41:32.440Z,98143.91
2023-01-30T01:44:48.858Z,98147.38
2023-01-30T01:47:58.966Z,98150.81
2023-01-30T01:51:03.694Z,98138.56
2023-01-30T01:54:08.533Z,98146.44
2023-01-30T01:57:14.514Z,98126.22
2023-01-30T02:00:17.440Z,98121.84
2023-01-30T02:03:21.497Z,98110.50
2023-01-30T02:06:25.003Z,98108.75
2023-01-30T02:09:27.411Z,98114.91
2023-01-30T02:12:32.829Z,98116.56
2023-01-30T02:15:34.426Z,98112.19
2023-01-30T02:18:37.584Z,98110.38
2023-01-30T02:21:58.040Z,98103.38
2023-01-30T02:25:18.319Z,98100.72
2023-01-30T02:28:40.870Z,98074.38
2023-01-30T02:31:48.012Z,98081.34
2023-01-30T02:34:57.658Z,98084.81
2023-01-30T02:38:04.650Z,98057.63
2023-01-30T02:41:12.032Z,98040.97
2023-01-30T02:44:17.359Z,98026.91
2023-01-30T02:47:24.440Z,98021.59
2023-01-30T02:50:29.305Z,98023.38
2023-01-30T02:53:33.039Z,98017.16
2023-01-30T02:56:44.785Z,98006.56
2023-01-30T02:59:48.599Z,98021.41
2023-01-30T03:03:09.933Z,97992.38
2023-01-30T03:06:26.117Z,97983.56
2023-01-30T03:09:31.069Z,97987.00
2023-01-30T03:12:38.411Z,97969.44
2023-01-30T03:15:42.729Z,97975.53
2023-01-30T03:18:45.916Z,97965.00
2023-01-30T03:21:51.023Z,97981.53
2023-01-30T03:24:53.600Z,97977.03
2023-01-30T03:27:55.846Z,97986.53
2023-01-30T03:30:58.664Z,97972.50
2023-01-30T03:34:01.929Z,97973.38
2023-01-30T03:37:04.950Z,97972.38
2023-01-30T03:40:10.496Z,97974.00
2023-01-30T03:43:12.657Z,97954.56
2023-01-30T03:46:14.274Z,97952.72
2023-01-30T03:49:18.099Z,97940.44
2023-01-30T03:52:21.456Z,97945.69
2023-01-30T03:55:23.321Z,97936.78
2023-01-30T03:58:26.198Z,97936.69
2023-01-30T04:01:29.045Z,97925.19
2023-01-30T04:04:32.014Z,97925.94
2023-01-30T04:07:34.814Z,97925.03
2023-01-30T04:10:36.584Z,97921.53
2023-01-30T04:13:39.021Z,97919.66
2023-01-30T04:16:40.847Z,97917.72
2023-01-30T04:20:13.186Z,97909.72
2023-01-30T04:23:20.685Z,97910.47
2023-01-30T04:26:22.326Z,97901.59
2023-01-30T04:29:24.814Z,97902.44
2023-01-30T04:32:28.035Z,97891.03
2023-01-30T04:35:31.158Z,97896.22
2023-01-30T04:38:33.380Z,97890.06
2023-01-30T04:41:35.615Z,97904.09
2023-01-30T04:44:37.631Z,97893.53
2023-01-30T04:47:49.338Z,97901.53
2023-01-30T04:50:53.285Z,97891.75
2023-01-30T04:53:54.996Z,97904.06
2023-01-30T04:56:57.736Z,97890.84
2023-01-30T04:59:59.571Z,97889.13
2023-01-30T05:03:01.198Z,97881.16
2023-01-30T05:06:04.554Z,97870.59
2023-01-30T05:09:06.652Z,97877.53
2023-01-30T05:12:08.295Z,97880.16
2023-01-30T05:15:10.878Z,97874.88
2023-01-30T05:18:12.600Z,97853.66
2023-01-30T05:21:16.535Z,97861.47
2023-01-30T05:24:18.045Z,97872.00
2023-01-30T05:27:19.604Z,97863.94
2023-01-30T05:30:21.454Z,97871.72
2023-01-30T05:33:23.237Z,97857.66
2023-01-30T05:36:26.265Z,97852.34
2023-01-30T05:39:27.870Z,97856.72
2023-01-30T05:42:29.424Z,97861.88
2023-01-30T05:45:30.970Z,97854.00
2023-01-30T05:48:32.931Z,97839.91
2023-01-30T05:51:35.764Z,97853.00
2023-01-30T05:54:37.555Z,97845.03
2023-01-30T05:57:39.287Z,97844.97
2023-01-30T06:00:41.179Z,97844.97
2023-01-30T06:03:43.002Z,97849.34
2023-01-30T06:06:48.709Z,97860.69
2023-01-30T06:09:50.291Z,97860.63
2023-01-30T06:12:52.180Z,97856.22
2023-01-30T06:15:53.787Z,97858.81
2023-01-30T06:18:55.365Z,97870.13
2023-01-30T06:21:58.443Z,97883.31
2023-01-30T06:25:00.169Z,97888.59
2023-01-30T06:28:01.980Z,97904.56
2023-01-30T06:31:05.508Z,97904.50
2023-01-30T06:34:08.147Z,97900.09
2023-01-30T06:37:11.125Z,97906.28
2023-01-30T06:40:13.157Z,97900.91
2023-01-30T06:43:14.956Z,97876.31
2023-01-30T06:46:17.538Z,97894.72
2023-01-30T06:49:19.348Z,97896.19
2023-01-30T06:52:23.089Z,97901.44
2023-01-30T06:55:25.826Z,97882.88
2023-01-30T06:58:27.612Z,97888.16
2023-01-30T07:01:29.387Z,97876.69
2023-01-30T07:04:30.931Z,97883.63
2023-01-30T07:07:34.615Z,97879.22
2023-01-30T07:10:36.269Z,97891.44
2023-01-30T07:13:38.405Z,97880.84
2023-01-30T07:16:40.075Z,97892.25
2023-01-30T07:19:42.796Z,97889.63
2023-01-30T07:22:50.525Z,97891.38
2023-01-30T07:25:52.048Z,97883.38
2023-01-30T07:28:55.931Z,97892.00
2023-01-30T07:31:57.791Z,97893.78
2023-01-30T07:34:59.404Z,97894.63
2023-01-30T07:38:02.702Z,97890.19
2023-01-30T07:41:04.329Z,97905.13
2023-01-30T07:44:07.848Z,97899.91
2023-01-30T07:47:09.595Z,97888.50
2023-01-30T07:50:11.626Z,97895.47
2023-01-30T07:53:15.578Z,97884.13
2023-01-30T07:56:19.926Z,97887.63
2023-01-30T07:59:21.816Z,97889.41
2023-01-30T08:02:23.595Z,97892.00
2023-01-30T08:05:25.608Z,97899.97
2023-01-30T08:08:29.340Z,97903.50
2023-01-30T08:11:31.280Z,97896.50
2023-01-30T08:14:32.852Z,97898.22
2023-01-30T08:17:34.564Z,97893.06
2023-01-30T08:20:36.224Z,97885.97
2023-01-30T08:23:39.357Z,97894.63
2023-01-30T08:26:41.156Z,97897.03
2023-01-30T08:29:43.937Z,97903.13
2023-01-30T08:32:45.577Z,97905.81
2023-01-30T08:35:47.375Z,97922.34
2023-01-30T08:38:50.441Z,97900.97
2023-01-30T08:41:52.441Z,97913.03
2023-01-30T08:44:54.202Z,97924.16
2023-01-30T08:47:57.914Z,97921.59
2023-01-30T08:50:59.831Z,97920.03
2023-01-30T08:54:03.085Z,97911.41
2023-01-30T08:57:04.742Z,97934.31
2023-01-30T09:00:07.217Z,97924.44
2023-01-30T09:03:08.931Z,97919.00
2023-01-30T09:06:10.584Z,97921.69
2023-01-30T09:09:13.526Z,97918.13
2023-01-30T09:12:15.098Z,97916.41
2023-01-30T09:15:16.951Z,97914.63
2023-01-30T09:18:18.562Z,97912.97
2023-01-30T09:21:22.148Z,97904.94
2023-01-30T09:24:28.009Z,97927.63
2023-01-30T09:27:30.115Z,97925.03
2023-01-30T09:30:33.758Z,97937.38
2023-01-30T09:33:35.739Z,97940.97
2023-01-30T09:36:37.405Z,97952.50
2023-01-30T09:39:40.582Z,97961.38
2023-01-30T09:42:47.540Z,97959.63
2023-01-30T09:45:59.174Z,97966.78
2023-01-30T09:49:04.050Z,97960.50
2023-01-30T09:52:14.601Z,97958.75
2023-01-30T09:55:19.787Z,97956.97
2023-01-30T09:58:22.700Z,97950.78
2023-01-30T10:01:27.358Z,97957.84
2023-01-30T10:04:31.880Z,97944.59
2023-01-30T10:07:42.013Z,97946.63
2023-01-30T10:11:00.993Z,97951.97
2023-01-30T10:14:21.297Z,97943.09
2023-01-30T10:17:36.482Z,97936.25
2023-01-30T10:20:41.203Z,97945.97
2023-01-30T10:23:50.840Z,97942.47
2023-01-30T10:26:54.688Z,97932.03
2023-01-30T10:29:57.901Z,97959.19
2023-01-30T10:33:02.774Z,97954.94
2023-01-30T10:36:06.565Z,97950.25
2023-01-30T10:39:17.672Z,97955.66
2023-01-30T10:42:24.702Z,97942.00
2023-01-30T10:45:29.357Z,97929.50
2023-01-30T10:48:46.033Z,97937.28
2023-01-30T10:51:52.861Z,97948.59
2023-01-30T10:55:00.333Z,97934.41
2023-01-30T10:58:06.482Z,97958.00
2023-01-30T11:01:14.506Z,97948.19
2023-01-30T11:04:24.230Z,97943.63
2023-01-30T11:07:26.190Z,97946.44
2023-01-30T11:10:28.248Z,97941.91
2023-01-30T11:13:32.177Z,97942.41
2023-01-30T11:16:40.626Z,97937.13
2023-01-30T11:19:42.392Z,97940.44
2023-01-30T11:22:48.888Z,97930.25
2023-01-30T11:26:05.453Z,97931.38
2023-01-30T11:29:23.360Z,97931.53
2023-01-30T11:32:26.454Z,97929.91
2023-01-30T11:35:29.902Z,97926.38
2023-01-30T11:38:33.000Z,97931.47
2023-01-30T11:41:34.793Z,97916.16
2023-01-30T11:44:38.095Z,97921.75
2023-01-30T11:47:43.207Z,97914.75
2023-01-30T11:50:56.021Z,97912.09
2023-01-30T11:53:59.712Z,97906.47
2023-01-30T11:57:03.314Z,97890.47
2023-01-30T12:00:14.162Z,97885.88
2023-01-30T12:03:17.624Z,97887.66
2023-01-30T12:06:23.742Z,97895.75
2023-01-30T12:09:31.517Z,97899.38
2023-01-30T12:12:34.574Z,97879.22
2023-01-30T12:15:37.966Z,97880.22
2023-01-30T12:18:44.801Z,97883.06
2023-01-30T12:21:49.597Z,97884.09
2023-01-30T12:24:58.723Z,97879.91
2023-01-30T12:28:02.514Z,97898.44
2023-01-30T12:31:07.624Z,97897.63
2023-01-30T12:34:09.831Z,97899.50
2023-01-30T12:37:24.391Z,97903.13
2023-01-30T12:40:32.808Z,97908.19
2023-01-30T12:43:49.510Z,97899.13
2023-01-30T12:46:57.800Z,97899.84
2023-01-30T12:50:06.498Z,97900.56
2023-01-30T12:53:29.110Z,97903.31
2023-01-30T12:56:42.417Z,97923.84
2023-01-30T12:59:50.686Z,97963.94
2023-01-30T13:03:02.899Z,97965.06
2023-01-30T13:06:10.869Z,97942.38
2023-01-30T13:09:23.390Z,97938.66
2023-01-30T13:12:31.621Z,97934.63
2023-01-30T13:15:38.623Z,97943.41
2023-01-30T13:18:43.870Z,97937.00
2023-01-30T13:21:51.061Z,97947.38
2023-01-30T13:25:00.663Z,97950.00
2023-01-30T13:28:06.207Z,97961.44
2023-01-30T13:31:09.648Z,97967.63
2023-01-30T13:34:17.999Z,97959.81
2023-01-30T13:37:20.641Z,97979.31
2023-01-30T13:40:24.680Z,97989.94
2023-01-30T13:43:29.518Z,97978.47
2023-01-30T13:46:32.600Z,97980.16
2023-01-30T13:49:38.727Z,97986.19
2023-01-30T13:52:43.083Z,97982.59
2023-01-30T13:55:47.542Z,97991.31
2023-01-30T13:58:54.279Z,97995.53
2023-01-30T14:02:11.056Z,97997.19
2023-01-30T14:05:14.253Z,98024.50
2023-01-30T14:08:18.628Z,98023.59
2023-01-30T14:11:29.273Z,98024.44
2023-01-30T14:14:32.467Z,98032.31
2023-01-30T14:17:34.410Z,98037.44
2023-01-30T14:20:45.377Z,98040.03
2023-01-30T14:23:55.575Z,98055.75
2023-01-30T14:27:02.111Z,98070.59
2023-01-30T14:30:25.977Z,98063.22
2023-01-30T14:33:33.949Z,98070.22
2023-01-30T14:36:37.296Z,98066.56
2023-01-30T14:39:39.929Z,98081.34
2023-01-30T14:42:41.575Z,98086.56
2023-01-30T14:45:45.753Z,98110.34
2023-01-30T14:48:53.559Z,98094.44
2023-01-30T14:51:56.897Z,98114.53
2023-01-30T14:54:58.608Z,98130.22
2023-01-30T14:58:01.838Z,98140.00
2023-01-30T15:01:03.501Z,98140.13
2023-01-30T15:04:05.426Z,98152.44
2023-01-30T15:07:11.481Z,98170.88
2023-01-30T15:10:29.156Z,98159.50
2023-01-30T15:13:36.272Z,98176.25
2023-01-30T15:17:08.311Z,98190.38
2023-01-30T15:20:17.737Z,98202.66
2023-01-30T15:23:36.301Z,98209.75
2023-01-30T15:26:46.881Z,98216.88
2023-01-30T15:30:04.469Z,98225.66
2023-01-30T15:33:19.886Z,98237.13
2023-01-30T15:36:26.415Z,98243.38
2023-01-30T15:39:29.340Z,98231.94
2023-01-30T15:42:31.089Z,98247.69
2023-01-30T15:45:37.046Z,98259.22
2023-01-30T15:48:48.204Z,98250.28
2023-01-30T15:51:51.628Z,98253.91
2023-01-30T15:54:56.376Z,98265.53
2023-01-30T15:58:00.605Z,98268.19
2023-01-30T16:01:02.714Z,98276.97
2023-01-30T16:04:08.110Z,98277.91
2023-01-30T16:07:16.687Z,98285.81
2023-01-30T16:10:20.845Z,98285.88
2023-01-30T16:13:23.858Z,98284.31
2023-01-30T16:16:26.224Z,98300.97
2023-01-30T16:19:29.753Z,98302.84
2023-01-30T16:22:33.551Z,98298.44
2023-01-30T16:25:36.642Z,98301.91
2023-01-30T16:28:38.530Z,98324.69
2023-01-30T16:31:41.454Z,98317.69
2023-01-30T16:34:43.257Z,98331.00
2023-01-30T16:37:44.898Z,98332.75
2023-01-30T16:40:47.867Z,98338.03
2023-01-30T16:44:07.203Z,98345.94
2023-01-30T16:47:22.413Z,98351.22
2023-01-30T16:50:24.182Z,98351.16
2023-01-30T16:53:28.414Z,98359.09
2023-01-30T16:56:33.424Z,98364.28
2023-01-30T16:59:35.824Z,98374.69
2023-01-30T17:02:39.781Z,98373.00
2023-01-30T17:05:43.100Z,98368.56
2023-01-30T17:08:48.471Z,98376.50
2023-01-30T17:11:54.946Z,98384.50
2023-01-30T17:15:14.271Z,98408.13
2023-01-30T17:18:16.047Z,98407.22
2023-01-30T17:21:18.028Z,98404.63
2023-01-30T17:24:20.868Z,98407.44
2023-01-30T17:27:24.855Z,98416.56
2023-01-30T17:30:26.488Z,98422.97
2023-01-30T17:33:28.333Z,98435.44
2023-01-30T17:36:30.949Z,98452.25
2023-01-30T17:39:33.450Z,98452.44
2023-01-30T17:42:36.375Z,98448.25
2023-01-30T17:45:37.946Z,98454.69
2023-01-30T17:48:39.673Z,98449.53
2023-01-30T17:51:41.528Z,98456.66
2023-01-30T17:54:43.358Z,98456.84
2023-01-30T17:57:48.061Z,98474.41
2023-01-30T18:00:50.063Z,98472.72
2023-01-30T18:03:51.801Z,98475.31
2023-01-30T18:06:56.214Z,98480.59
2023-01-30T18:09:58.087Z,98490.19
2023-01-30T18:13:01.080Z,98485.75
2023-01-30T18:16:03.877Z,98491.88
2023-01-30T18:19:06.504Z,98502.31
2023-01-30T18:22:08.184Z,98508.34
2023-01-30T18:25:13.477Z,98508.31
2023-01-30T18:28:16.946Z,98524.09
2023-01-30T18:31:18.789Z,98530.19
2023-01-30T18:34:20.861Z,98538.91
2023-01-30T18:37:22.612Z,98545.88
2023-01-30T18:40:24.379Z,98545.88
2023-01-30T18:43:27.373Z,98546.75
2023-01-30T18:46:29.488Z,98537.91
2023-01-30T18:49:55.989Z,98544.84
2023-01-30T18:52:58.091Z,98543.88
2023-01-30T18:56:01.231Z,98550.84
2023-01-30T18:59:05.559Z,98564.81
2023-01-30T19:02:07.347Z,98575.28
2023-01-30T19:05:09.437Z,98577.88
2023-01-30T19:08:11.557Z,98575.22
2023-01-30T19:11:34.066Z,98583.97
2023-01-30T19:14:36.985Z,98595.34
2023-01-30T19:17:38.778Z,98607.66
2023-01-30T19:20:40.377Z,98602.41
2023-01-30T19:23:42.276Z,98609.47
2023-01-30T19:26:43.980Z,98618.28
2023-01-30T19:29:47.099Z,98618.28
2023-01-30T19:32:48.982Z,98629.72
2023-01-30T19:35:50.830Z,98622.72
2023-01-30T19:38:52.676Z,98624.50
2023-01-30T19:41:54.574Z,98635.00
2023-01-30T19:44:57.796Z,98630.75
2023-01-30T19:47:59.507Z,98645.72
2023-01-30T19:51:09.072Z,98640.47
2023-01-30T19:54:11.483Z,98655.41
2023-01-30T19:57:13.053Z,98655.41
2023-01-30T20:00:16.749Z,98664.25
2023-01-30T20:03:18.376Z,98663.44
2023-01-30T20:06:20.819Z,98673.16
2023-01-30T20:09:22.656Z,98674.03
2023-01-30T20:12:24.359Z,98680.16
2023-01-30T20:15:27.349Z,98669.63
2023-01-30T20:18:29.741Z,98678.47
2023-01-30T20:21:31.606Z,98680.19
2023-01-30T20:24:33.541Z,98674.06
2023-01-30T20:27:35.322Z,98681.97
2023-01-30T20:30:40.354Z,98681.13
2023-01-30T20:33:42.515Z,98699.59
2023-01-30T20:36:44.291Z,98710.25
2023-01-30T20:39:46.832Z,98717.34
2023-01-30T20:42:49.192Z,98727.06
2023-01-30T20:46:03.411Z,98731.53
2023-01-30T20:49:05.018Z,98729.03
2023-01-30T20:52:06.920Z,98724.75
2023-01-30T20:55:09.192Z,98743.22
2023-01-30T20:58:10.836Z,98717.03
2023-01-30T21:01:18.387Z,98728.53
2023-01-30T21:04:21.087Z,98739.97
2023-01-30T21:07:22.796Z,98728.63
2023-01-30T21:10:24.486Z,98737.56
2023-01-30T21:13:26.386Z,98741.19
2023-01-30T21:16:31.110Z,98732.41
2023-01-30T21:19:33.107Z,98731.56
2023-01-30T21:22:35.112Z,98726.31
2023-01-30T21:25:37.000Z,98745.59
2023-01-30T21:28:39.153Z,98749.94
2023-01-30T21:31:43.615Z,98749.97
2023-01-30T21:34:45.496Z,98753.44
2023-01-30T21:38:05.732Z,98765.66
2023-01-30T21:41:27.514Z,98758.59
2023-01-30T21:44:29.827Z,98766.44
2023-01-30T21:47:32.787Z,98754.13
2023-01-30T21:50:34.362Z,98766.41
2023-01-30T21:53:36.503Z,98774.28
2023-01-30T21:56:38.791Z,98775.19
2023-01-30T21:59:40.384Z,98776.94
2023-01-30T22:02:48.924Z,98773.44
2023-01-30T22:05:50.609Z,98783.97
2023-01-30T22:08:54.206Z,98775.22
2023-01-30T22:11:56.116Z,98777.00
2023-01-30T22:14:57.724Z,98778.81
2023-01-30T22:18:01.107Z,98777.94
2023-01-30T22:21:03.719Z,98792.06
2023-01-30T22:24:07.446Z,98793.88
2023-01-30T22:27:09.037Z,98804.41
2023-01-30T22:30:11.176Z,98808.03
2023-01-30T22:33:14.347Z,98809.78
2023-01-30T22:36:16.220Z,98812.41
2023-01-30T22:39:17.767Z,98805.44
2023-01-30T22:42:19.372Z,98811.59
2023-01-30T22:45:21.433Z,98810.75
2023-01-30T22:48:24.574Z,98807.25
2023-01-30T22:51:26.883Z,98811.69
2023-01-30T22:54:28.763Z,98802.91
2023-01-30T22:57:30.332Z,98808.16
2023-01-30T23:00:31.991Z,98810.78
2023-01-30T23:03:36.872Z,98813.38
2023-01-30T23:06:39.218Z,98809.84
2023-01-30T23:09:40.747Z,98803.66
2023-01-30T23:13:01.051Z,98808.06
2023-01-30T23:16:03.830Z,98812.47
2023-01-30T23:19:07.647Z,98810.69
2023-01-30T23:22:09.522Z,98813.31
2023-01-30T23:25:13.985Z,98821.25
2023-01-30T23:28:15.859Z,98813.38
2023-01-30T23:31:19.150Z,98819.53
2023-01-30T23:34:22.625Z,98823.06
2023-01-30T23:37:44.533Z,98817.84
2023-01-30T23:40:47.633Z,98817.88
2023-01-30T23:43:49.853Z,98823.19
2023-01-30T23:46:52.532Z,98826.69
2023-01-30T23:49:55.992Z,98817.88
2023-01-30T23:52:57.578Z,98830.16
2023-01-30T23:55:59.295Z,98836.31
2023-01-30T23:59:02.426Z,98832.78
